Time;durP1;ratioP1;P1;durP2;ratioP2;P2;SDS_P1;SDS_P2;PMS_P1;PMS_P2;Temp;Humidity;BMP_temperature;BMP_pressure;BME280_temperature;BME280_humidity;BME280_pressure;Samples;Min_cycle;Max_cycle;Signal;HPM_P1;HPM_P2
2022/01/08 00:00:21;;;;;;;10.45;7.18;;;;;;;1.98;100.00;94397.91;5138267;27;20034;-67
2022/01/08 00:02:48;;;;;;;10.55;7.53;;;;;;;1.97;100.00;94401.78;5137944;27;20029;-69
2022/01/08 00:05:14;;;;;;;10.40;7.55;;;;;;;2.03;100.00;94400.03;5137151;27;20379;-67
2022/01/08 00:07:40;;;;;;;10.55;7.32;;;;;;;2.03;100.00;94400.78;5137671;27;20026;-68
2022/01/08 00:10:06;;;;;;;9.95;7.25;;;;;;;2.14;100.00;94403.13;5137970;27;20034;-68
2022/01/08 00:12:31;;;;;;;11.45;8.05;;;;;;;2.23;100.00;94409.72;5138040;27;20031;-68
2022/01/08 00:14:57;;;;;;;10.40;7.18;;;;;;;2.30;100.00;94417.50;5137719;27;20023;-68
2022/01/08 00:17:23;;;;;;;10.13;7.35;;;;;;;2.19;100.00;94410.56;5137560;27;20019;-68
2022/01/08 00:19:52;;;;;;;10.70;7.43;;;;;;;2.22;100.00;94405.53;5137882;27;20084;-69
2022/01/08 00:22:18;;;;;;;10.48;6.88;;;;;;;2.19;100.00;94397.19;5137545;27;20095;-68
2022/01/08 00:24:44;;;;;;;11.05;6.88;;;;;;;2.24;100.00;94395.16;5137553;27;20091;-68
2022/01/08 00:27:09;;;;;;;8.50;6.45;;;;;;;2.14;100.00;94384.38;5137541;27;20023;-68
2022/01/08 00:29:35;;;;;;;9.55;6.80;;;;;;;1.91;100.00;94376.72;5137467;27;20428;-69
2022/01/08 00:32:01;;;;;;;10.63;6.78;;;;;;;2.06;100.00;94377.00;5136679;27;20038;-69
2022/01/08 00:34:26;;;;;;;10.05;6.70;;;;;;;1.95;100.00;94374.66;5137383;27;20438;-69
2022/01/08 00:36:52;;;;;;;9.20;6.60;;;;;;;1.87;100.00;94371.50;5137387;27;20066;-68
2022/01/08 00:39:17;;;;;;;8.70;6.10;;;;;;;1.73;100.00;94356.63;5137493;27;20024;-68
2022/01/08 00:41:42;;;;;;;9.68;6.28;;;;;;;1.71;100.00;94361.69;5137150;27;20073;-68
2022/01/08 00:44:08;;;;;;;11.73;7.35;;;;;;;1.72;100.00;94365.88;5136789;27;20038;-68
2022/01/08 00:46:34;;;;;;;13.13;6.53;;;;;;;1.69;100.00;94367.47;5137499;27;20027;-66
2022/01/08 00:49:01;;;;;;;8.82;6.03;;;;;;;1.68;100.00;94370.59;5137228;27;20055;-68
2022/01/08 00:51:27;;;;;;;9.63;6.40;;;;;;;1.91;100.00;94374.81;5137113;27;20093;-68
2022/01/08 00:53:52;;;;;;;8.18;5.70;;;;;;;1.83;100.00;94366.25;5136837;27;20030;-68
2022/01/08 00:56:18;;;;;;;8.70;6.00;;;;;;;1.79;100.00;94381.69;5137556;27;20106;-68
2022/01/08 00:58:43;;;;;;;8.82;6.40;;;;;;;1.89;100.00;94373.75;5136157;27;20030;-68
2022/01/08 01:01:09;;;;;;;8.93;5.97;;;;;;;1.81;100.00;94357.94;5135094;27;20019;-68
2022/01/08 01:03:35;;;;;;;9.38;6.18;;;;;;;1.79;100.00;94365.63;5135736;27;20026;-68
2022/01/08 01:06:00;;;;;;;9.25;6.10;;;;;;;1.77;100.00;94351.19;5136770;27;20079;-68
2022/01/08 01:08:26;;;;;;;7.30;5.20;;;;;;;1.86;100.00;94349.31;5136724;27;20030;-68
2022/01/08 01:10:51;;;;;;;6.85;5.00;;;;;;;1.86;100.00;94356.63;5136800;27;20333;-68
2022/01/08 01:13:17;;;;;;;6.93;5.28;;;;;;;1.83;100.00;94352.13;5137100;27;20088;-68
2022/01/08 01:15:43;;;;;;;6.63;5.00;;;;;;;1.82;100.00;94350.63;5136733;27;20054;-68
2022/01/08 01:18:09;;;;;;;9.52;5.95;;;;;;;1.86;100.00;94345.91;5136468;27;20034;-68
2022/01/08 01:20:35;;;;;;;9.55;5.85;;;;;;;1.77;100.00;94341.25;5136617;27;20030;-68
2022/01/08 01:23:08;;;;;;;8.25;5.20;;;;;;;1.65;100.00;94345.44;5136343;27;20106;-67
2022/01/08 01:25:41;;;;;;;8.02;5.05;;;;;;;1.71;100.00;94332.25;5136585;27;20030;-67
2022/01/08 01:49:20;;;;;;;7.63;5.22;;;;;;;1.89;100.00;94331.66;5136176;27;20033;-68
2022/01/08 01:51:45;;;;;;;8.25;5.30;;;;;;;1.92;100.00;94319.34;5135781;27;20102;-68
2022/01/08 01:54:11;;;;;;;7.10;4.82;;;;;;;1.90;100.00;94311.00;5134628;27;20420;-67
2022/01/08 01:56:38;;;;;;;8.05;4.60;;;;;;;1.80;100.00;94312.84;5135619;27;20027;-68
2022/01/08 01:59:04;;;;;;;7.07;5.00;;;;;;;1.85;100.00;94293.56;5135967;27;20091;-68
2022/01/08 02:01:30;;;;;;;6.78;4.70;;;;;;;1.79;100.00;94296.03;5135624;27;20102;-68
2022/01/08 02:03:55;;;;;;;7.50;4.95;;;;;;;1.77;100.00;94303.78;5135638;27;20051;-69
2022/01/08 02:06:21;;;;;;;6.70;4.28;;;;;;;1.79;100.00;94298.72;5135594;27;20027;-67
2022/01/08 02:08:47;;;;;;;7.85;4.40;;;;;;;1.68;100.00;94301.00;5135277;27;20444;-67
2022/01/08 02:11:12;;;;;;;6.93;4.75;;;;;;;1.76;100.00;94291.56;5135089;27;20442;-68
2022/01/08 02:13:39;;;;;;;6.45;4.55;;;;;;;1.74;100.00;94296.59;5134806;27;20375;-68
2022/01/08 02:16:06;;;;;;;6.22;4.63;;;;;;;1.72;100.00;94290.19;5135455;27;20042;-68
2022/01/08 02:18:34;;;;;;;7.82;4.68;;;;;;;1.73;100.00;94276.38;5135272;27;20118;-68
2022/01/08 02:21:01;;;;;;;6.25;4.00;;;;;;;1.76;100.00;94256.00;5135113;27;20031;-68
2022/01/08 02:23:27;;;;;;;6.00;3.90;;;;;;;1.80;100.00;94262.75;5135071;27;20023;-68
2022/01/08 02:26:07;;;;;;;5.72;4.30;;;;;;;1.72;100.00;94248.13;5134129;27;20085;-69
2022/01/08 02:28:34;;;;;;;5.28;3.78;;;;;;;1.71;100.00;94238.59;5135300;27;20110;-68
2022/01/08 02:31:00;;;;;;;6.53;4.18;;;;;;;1.75;100.00;94241.91;5135431;27;20102;-68
2022/01/08 02:33:27;;;;;;;5.43;3.85;;;;;;;1.74;100.00;94240.41;5134981;27;20493;-68
2022/01/08 02:35:53;;;;;;;5.53;3.78;;;;;;;1.87;100.00;94237.69;5135257;27;20087;-67
2022/01/08 02:38:19;;;;;;;4.32;3.35;;;;;;;1.89;100.00;94239.91;5136233;27;20038;-68
2022/01/08 02:40:57;;;;;;;5.88;3.90;;;;;;;1.89;100.00;94232.63;5133902;27;20540;-67
2022/01/08 02:43:24;;;;;;;6.53;3.40;;;;;;;1.86;100.00;94228.16;5134593;27;20055;-67
2022/01/08 02:45:50;;;;;;;6.13;4.00;;;;;;;1.92;100.00;94225.66;5134908;27;20049;-67
2022/01/08 02:48:15;;;;;;;6.55;3.90;;;;;;;1.90;100.00;94222.69;5134570;27;20031;-67
2022/01/08 02:50:41;;;;;;;4.05;3.40;;;;;;;1.89;100.00;94229.22;5134765;27;20095;-67
2022/01/08 02:53:07;;;;;;;5.45;3.25;;;;;;;1.85;100.00;94219.38;5134816;27;20094;-67
2022/01/08 02:55:32;;;;;;;5.10;3.65;;;;;;;1.86;100.00;94220.84;5134513;27;20035;-67
2022/01/08 02:57:57;;;;;;;5.47;3.30;;;;;;;1.91;100.00;94218.78;5134341;27;20424;-68
2022/01/08 03:00:23;;;;;;;5.13;3.00;;;;;;;1.90;100.00;94211.97;5134646;27;20344;-67
2022/01/08 03:02:51;;;;;;;3.83;2.63;;;;;;;1.90;100.00;94225.34;5134785;27;20077;-67
2022/01/08 03:05:17;;;;;;;4.50;3.30;;;;;;;1.92;100.00;94223.72;5134299;27;20540;-67
2022/01/08 03:07:45;;;;;;;4.65;3.42;;;;;;;1.98;100.00;94215.88;5134378;27;20074;-67
2022/01/08 03:10:15;;;;;;;6.22;4.30;;;;;;;1.99;100.00;94218.13;5134128;27;20114;-69
2022/01/08 03:12:42;;;;;;;4.90;3.17;;;;;;;1.97;100.00;94209.03;5134128;27;20447;-67
2022/01/08 03:15:10;;;;;;;6.07;3.28;;;;;;;1.89;100.00;94208.53;5133033;27;20379;-67
2022/01/08 03:17:36;;;;;;;4.85;3.40;;;;;;;1.95;100.00;94222.09;5133994;27;20449;-67
2022/01/08 03:20:06;;;;;;;4.43;3.17;;;;;;;1.98;100.00;94219.31;5133015;27;20031;-67
2022/01/08 03:22:32;;;;;;;7.05;3.88;;;;;;;1.99;100.00;94222.72;5133097;27;20407;-68
2022/01/08 03:24:58;;;;;;;4.50;3.50;;;;;;;1.98;100.00;94221.25;5132935;27;20115;-68
2022/01/08 03:27:24;;;;;;;6.15;4.05;;;;;;;2.02;100.00;94229.91;5133950;27;20023;-68
2022/01/08 03:29:49;;;;;;;5.65;3.70;;;;;;;2.09;100.00;94221.59;5134220;27;20545;-68
2022/01/08 03:32:15;;;;;;;5.50;3.67;;;;;;;2.32;100.00;94227.69;5133923;27;20042;-68
2022/01/08 03:34:40;;;;;;;5.13;3.65;;;;;;;2.14;100.00;94228.31;5133931;27;20015;-68
2022/01/08 03:37:06;;;;;;;4.78;3.42;;;;;;;2.20;100.00;94229.97;5133791;27;20023;-68
2022/01/08 03:39:32;;;;;;;6.13;3.95;;;;;;;2.15;100.00;94219.81;5133780;27;20019;-67
2022/01/08 03:41:57;;;;;;;5.28;3.60;;;;;;;2.28;100.00;94222.44;5133932;27;20113;-67
2022/01/08 03:44:23;;;;;;;4.28;3.28;;;;;;;2.12;100.00;94218.03;5132564;27;20066;-67
2022/01/08 03:46:48;;;;;;;4.28;3.40;;;;;;;2.12;100.00;94204.66;5133634;27;20169;-67
2022/01/08 03:49:25;;;;;;;5.47;3.45;;;;;;;2.07;100.00;94191.81;5133665;27;20027;-67
2022/01/08 03:51:55;;;;;;;4.07;3.38;;;;;;;2.00;100.00;94197.44;5134671;27;20406;-67
2022/01/08 03:54:21;;;;;;;4.82;3.65;;;;;;;1.92;100.00;94196.22;5133624;27;20054;-67
2022/01/08 03:56:47;;;;;;;4.70;3.50;;;;;;;1.93;100.00;94192.34;5133775;27;20019;-67
2022/01/08 03:59:13;;;;;;;5.50;3.50;;;;;;;1.84;100.00;94193.78;5133891;27;20031;-68
2022/01/08 04:01:38;;;;;;;5.85;4.07;;;;;;;1.87;100.00;94192.19;5133136;28;20061;-68
2022/01/08 04:04:04;;;;;;;5.95;4.40;;;;;;;1.91;100.00;94187.44;5132639;28;20520;-68
2022/01/08 04:06:29;;;;;;;5.35;3.65;;;;;;;1.86;100.00;94188.75;5133597;27;20061;-68
2022/01/08 04:08:58;;;;;;;5.45;3.83;;;;;;;1.80;100.00;94189.75;5133920;27;20080;-68
2022/01/08 04:11:25;;;;;;;5.00;3.40;;;;;;;1.67;100.00;94163.78;5133508;28;20022;-68
2022/01/08 04:13:51;;;;;;;4.93;3.50;;;;;;;1.75;100.00;94166.25;5133528;27;20021;-68
2022/01/08 04:16:21;;;;;;;4.97;3.50;;;;;;;1.74;100.00;94186.88;5133755;27;20027;-68
2022/01/08 04:18:47;;;;;;;5.38;3.92;;;;;;;1.75;100.00;94183.03;5133845;27;20027;-67
2022/01/08 04:23:47;;;;;;;5.25;3.40;;;;;;;1.95;100.00;94189.97;5134303;27;20019;-68
2022/01/08 04:26:12;;;;;;;5.20;3.30;;;;;;;1.76;100.00;94194.47;5133895;27;20075;-68
2022/01/08 04:28:38;;;;;;;4.15;3.15;;;;;;;1.76;100.00;94189.88;5133711;27;20023;-68
2022/01/08 04:31:03;;;;;;;4.75;3.33;;;;;;;1.88;100.00;94195.59;5133709;27;20027;-68
2022/01/08 04:33:29;;;;;;;4.97;3.50;;;;;;;1.80;100.00;94179.78;5133355;27;20023;-68
2022/01/08 04:35:55;;;;;;;5.10;3.80;;;;;;;1.79;100.00;94182.91;5135692;27;20488;-69
2022/01/08 04:38:21;;;;;;;4.53;3.38;;;;;;;1.85;100.00;94197.97;5137737;27;20079;-68
2022/01/08 04:40:46;;;;;;;5.57;3.40;;;;;;;1.84;100.00;94193.03;5137164;27;20023;-68
2022/01/08 04:43:12;;;;;;;3.90;3.35;;;;;;;2.01;100.00;94188.25;5137155;27;20043;-68
2022/01/08 04:45:38;;;;;;;5.28;3.50;;;;;;;2.25;100.00;94195.78;5136010;27;20041;-68
2022/01/08 04:48:04;;;;;;;7.95;3.42;;;;;;;2.16;100.00;94173.13;5137342;27;20101;-68
2022/01/08 04:50:30;;;;;;;4.97;3.72;;;;;;;2.09;100.00;94196.75;5137489;27;20405;-68
2022/01/08 04:52:56;;;;;;;6.40;4.10;;;;;;;2.11;100.00;94186.34;5136932;27;20042;-68
2022/01/08 04:55:22;;;;;;;4.60;3.67;;;;;;;2.16;100.00;94199.91;5137106;27;20088;-68
2022/01/08 04:57:48;;;;;;;4.97;3.58;;;;;;;2.03;100.00;94191.97;5137276;27;20452;-68
2022/01/08 05:00:15;;;;;;;5.05;3.40;;;;;;;1.98;100.00;94183.75;5136736;27;20386;-68
2022/01/08 05:02:41;;;;;;;5.35;3.35;;;;;;;1.92;100.00;94188.19;5136692;27;20465;-68
2022/01/08 05:05:07;;;;;;;5.03;3.67;;;;;;;2.00;100.00;94195.53;5135953;27;20098;-68
2022/01/08 05:07:33;;;;;;;5.13;3.60;;;;;;;1.94;100.00;94185.81;5135542;27;20047;-68
2022/01/08 05:09:58;;;;;;;5.45;3.58;;;;;;;2.01;100.00;94177.53;5137046;27;20054;-68
2022/01/08 05:12:24;;;;;;;4.90;3.38;;;;;;;2.05;100.00;94199.56;5136528;27;20023;-68
2022/01/08 05:14:50;;;;;;;5.25;3.63;;;;;;;2.09;100.00;94194.81;5137013;27;20049;-68
2022/01/08 05:17:15;;;;;;;4.10;3.05;;;;;;;2.02;100.00;94184.38;5136554;27;20026;-67
2022/01/08 05:19:49;;;;;;;4.72;3.38;;;;;;;2.12;100.00;94193.94;5136374;27;20031;-67
2022/01/08 05:22:25;;;;;;;4.00;3.20;;;;;;;2.25;100.00;94190.44;5136658;27;20042;-68
2022/01/08 05:24:51;;;;;;;4.30;2.80;;;;;;;2.11;100.00;94187.09;5136821;27;20349;-68
2022/01/08 05:27:17;;;;;;;5.40;2.40;;;;;;;2.08;100.00;94171.16;5136189;27;20080;-68
2022/01/08 05:29:48;;;;;;;3.20;2.60;;;;;;;2.04;100.00;94182.00;5136420;27;20027;-67
2022/01/08 05:32:16;;;;;;;3.65;2.85;;;;;;;2.11;100.00;94199.72;5136348;27;20156;-68
2022/01/08 05:34:47;;;;;;;5.30;3.10;;;;;;;2.11;100.00;94181.72;5135918;27;20034;-67
2022/01/08 05:37:13;;;;;;;4.85;3.00;;;;;;;2.11;100.00;94192.44;5135749;27;20421;-67
2022/01/08 05:39:39;;;;;;;4.30;3.00;;;;;;;2.16;100.00;94189.19;5135816;27;20474;-67
2022/01/08 05:42:05;;;;;;;3.45;2.88;;;;;;;2.31;100.00;94194.03;5135834;27;20023;-69
2022/01/08 05:44:31;;;;;;;4.25;3.03;;;;;;;2.46;100.00;94194.97;5134678;27;20388;-68
2022/01/08 05:46:57;;;;;;;4.90;3.20;;;;;;;2.61;100.00;94199.81;5135595;27;20172;-67
2022/01/08 05:49:23;;;;;;;5.07;3.20;;;;;;;2.50;100.00;94192.91;5136231;27;20019;-69
2022/01/08 05:51:48;;;;;;;4.55;2.70;;;;;;;2.59;100.00;94191.44;5135670;27;20466;-67
2022/01/08 05:54:14;;;;;;;5.53;2.85;;;;;;;2.50;100.00;94184.88;5135792;27;20031;-68
2022/01/08 05:56:39;;;;;;;3.47;2.55;;;;;;;2.53;100.00;94189.34;5135504;27;20035;-69
2022/01/08 05:59:05;;;;;;;4.72;2.88;;;;;;;2.42;100.00;94183.66;5135556;27;20105;-69
2022/01/08 06:01:33;;;;;;;4.03;3.08;;;;;;;2.32;100.00;94188.22;5134796;27;20041;-69
2022/01/08 06:03:59;;;;;;;4.90;3.30;;;;;;;2.33;100.00;94192.41;5136363;27;20432;-67
2022/01/08 06:06:24;;;;;;;4.55;2.92;;;;;;;2.40;100.00;94179.91;5135252;27;20044;-68
2022/01/08 06:08:50;;;;;;;4.15;3.05;;;;;;;2.35;100.00;94178.56;5134394;27;20027;-68
2022/01/08 06:11:15;;;;;;;6.53;3.35;;;;;;;2.38;100.00;94176.94;5135277;27;20038;-68
2022/01/08 06:13:41;;;;;;;8.18;3.00;;;;;;;2.39;100.00;94173.06;5135555;27;20058;-68
2022/01/08 06:16:06;;;;;;;6.53;2.80;;;;;;;2.33;100.00;94162.94;5135364;27;20379;-68
2022/01/08 06:18:32;;;;;;;4.38;3.10;;;;;;;2.38;100.00;94180.38;5135540;27;20037;-68
2022/01/08 06:20:59;;;;;;;4.80;3.10;;;;;;;2.26;100.00;94175.84;5134144;27;20470;-68
2022/01/08 06:23:28;;;;;;;5.97;3.25;;;;;;;2.29;100.00;94174.97;5134922;27;20407;-67
2022/01/08 06:25:53;;;;;;;4.50;2.97;;;;;;;2.33;100.00;94175.56;5135273;27;20439;-68
2022/01/08 06:28:19;;;;;;;5.65;3.17;;;;;;;2.42;100.00;94180.97;5135136;27;20091;-67
2022/01/08 06:30:44;;;;;;;5.70;3.53;;;;;;;2.35;100.00;94178.56;5135183;27;20023;-67
2022/01/08 06:33:10;;;;;;;6.38;3.92;;;;;;;2.43;100.00;94176.38;5135044;27;20019;-67
2022/01/08 06:35:35;;;;;;;4.35;3.20;;;;;;;2.67;100.00;94181.94;5135456;27;20133;-68
2022/01/08 06:38:01;;;;;;;7.97;3.45;;;;;;;2.60;100.00;94180.28;5134689;27;20041;-68
2022/01/08 06:40:27;;;;;;;8.95;3.33;;;;;;;2.62;100.00;94169.88;5134973;27;20023;-68
2022/01/08 06:42:52;;;;;;;5.82;3.13;;;;;;;2.66;100.00;94175.84;5134523;27;20019;-68
2022/01/08 06:45:18;;;;;;;6.05;2.75;;;;;;;2.78;100.00;94170.81;5135066;27;20421;-68
2022/01/08 06:47:45;;;;;;;8.65;2.70;;;;;;;2.65;100.00;94171.66;5135191;27;20051;-68
2022/01/08 06:50:12;;;;;;;5.68;3.53;;;;;;;2.61;100.00;94165.72;5134672;27;20027;-67
2022/01/08 06:52:38;;;;;;;7.22;3.50;;;;;;;2.74;100.00;94164.84;5134868;27;20054;-67
2022/01/08 06:55:05;;;;;;;5.00;3.08;;;;;;;2.59;100.00;94170.78;5134532;27;20030;-68
2022/01/08 06:57:31;;;;;;;4.45;2.70;;;;;;;2.48;100.00;94154.34;5134341;27;20054;-67
2022/01/08 06:59:56;;;;;;;5.25;3.30;;;;;;;2.70;100.00;94149.66;5133211;27;20047;-69
2022/01/08 07:02:22;;;;;;;4.70;2.80;;;;;;;2.65;100.00;94163.63;5134609;27;20463;-69
2022/01/08 07:04:47;;;;;;;5.38;2.88;;;;;;;2.82;100.00;94172.19;5134378;27;20026;-69
2022/01/08 07:07:13;;;;;;;4.43;2.50;;;;;;;2.70;100.00;94165.00;5134612;27;20364;-69
2022/01/08 07:09:38;;;;;;;6.15;3.58;;;;;;;2.79;100.00;94167.69;5134358;27;20023;-69
2022/01/08 07:12:04;;;;;;;8.73;2.75;;;;;;;2.80;100.00;94163.81;5133273;27;20106;-69
2022/01/08 07:14:31;;;;;;;4.57;3.40;;;;;;;2.92;100.00;94169.47;5134414;27;20026;-69
2022/01/08 07:16:57;;;;;;;4.63;2.92;;;;;;;2.93;100.00;94168.31;5134293;27;20380;-69
2022/01/08 07:19:23;;;;;;;4.50;2.67;;;;;;;2.93;100.00;94168.31;5134333;27;20023;-69
2022/01/08 07:21:49;;;;;;;4.35;2.92;;;;;;;2.96;100.00;94164.72;5134039;27;20015;-69
2022/01/08 07:24:14;;;;;;;4.50;2.80;;;;;;;2.95;100.00;94160.56;5133091;27;20015;-69
2022/01/08 07:26:40;;;;;;;4.13;3.20;;;;;;;3.14;100.00;94170.13;5134018;27;20015;-69
2022/01/08 07:29:05;;;;;;;11.80;3.72;;;;;;;3.26;100.00;94171.19;5134092;27;20163;-69
2022/01/08 07:31:31;;;;;;;4.55;3.45;;;;;;;3.03;100.00;94159.09;5133988;27;20019;-68
2022/01/08 07:33:56;;;;;;;4.95;3.47;;;;;;;2.99;100.00;94169.94;5134392;27;20027;-69
2022/01/08 07:36:22;;;;;;;4.63;2.72;;;;;;;3.00;100.00;94165.31;5132816;27;20023;-69
2022/01/08 07:38:47;;;;;;;4.53;3.22;;;;;;;2.98;100.00;94157.72;5134242;27;20023;-69
2022/01/08 07:41:13;;;;;;;4.78;3.05;;;;;;;3.11;100.00;94159.53;5133967;27;20018;-68
2022/01/08 07:43:39;;;;;;;6.93;3.10;;;;;;;3.07;100.00;94175.03;5133351;27;20047;-67
2022/01/08 07:46:05;;;;;;;5.85;3.17;;;;;;;3.15;100.00;94171.63;5134399;27;20012;-68
2022/01/08 07:48:30;;;;;;;5.72;3.33;;;;;;;3.31;100.00;94186.69;5133862;27;20139;-67
2022/01/08 07:50:56;;;;;;;4.95;3.25;;;;;;;3.36;100.00;94174.59;5133748;27;20185;-68
2022/01/08 07:53:22;;;;;;;4.90;3.58;;;;;;;3.48;100.00;94171.03;5133822;27;20419;-69
2022/01/08 07:55:47;;;;;;;4.30;3.00;;;;;;;3.62;100.00;94169.66;5134173;27;20362;-68
2022/01/08 07:58:13;;;;;;;4.03;2.83;;;;;;;3.68;100.00;94153.69;5133774;27;20021;-69
2022/01/08 08:00:38;;;;;;;4.43;2.50;;;;;;;3.57;100.00;94172.22;5133776;27;20016;-68
2022/01/08 08:03:03;;;;;;;4.63;2.97;;;;;;;3.56;100.00;94174.16;5133757;27;20031;-68
2022/01/08 08:05:31;;;;;;;4.38;3.00;;;;;;;3.75;100.00;94174.13;5134074;27;20031;-69
2022/01/08 08:07:56;;;;;;;5.18;3.22;;;;;;;3.78;100.00;94171.28;5134053;27;20071;-69
2022/01/08 08:10:25;;;;;;;8.25;3.03;;;;;;;3.93;100.00;94176.03;5135078;27;20019;-69
2022/01/08 08:12:53;;;;;;;4.60;3.22;;;;;;;4.00;100.00;94173.03;5137840;27;20026;-69
2022/01/08 08:15:20;;;;;;;10.65;2.83;;;;;;;4.29;100.00;94166.38;5137787;27;20128;-70
2022/01/08 08:17:46;;;;;;;3.97;2.28;;;;;;;4.41;100.00;94173.50;5137919;27;20340;-70
2022/01/08 08:20:12;;;;;;;5.53;2.75;;;;;;;4.95;100.00;94164.88;5138261;27;20034;-69
2022/01/08 08:22:38;;;;;;;3.50;2.50;;;;;;;5.04;100.00;94167.50;5137736;27;20129;-70
2022/01/08 08:25:05;;;;;;;3.58;2.28;;;;;;;4.90;100.00;94166.97;5137546;27;20023;-70
2022/01/08 08:27:31;;;;;;;6.65;2.55;;;;;;;5.28;100.00;94172.88;5136572;27;20027;-70
2022/01/08 08:29:57;;;;;;;3.03;2.42;;;;;;;5.82;100.00;94164.81;5137405;27;20456;-70
2022/01/08 08:32:22;;;;;;;3.63;2.45;;;;;;;6.16;100.00;94164.63;5136233;27;20027;-70
2022/01/08 08:34:50;;;;;;;6.32;2.30;;;;;;;6.30;100.00;94157.75;5137386;27;20023;-70
2022/01/08 08:37:16;;;;;;;4.68;2.47;;;;;;;6.05;100.00;94159.81;5137469;27;20015;-69
2022/01/08 08:39:41;;;;;;;4.43;2.90;;;;;;;6.26;100.00;94139.81;5137255;27;20027;-69
2022/01/08 08:42:07;;;;;;;3.15;2.22;;;;;;;6.50;100.00;94148.97;5137575;27;20065;-70
2022/01/08 08:44:33;;;;;;;2.72;2.00;;;;;;;6.45;100.00;94158.47;5137104;27;20051;-69
2022/01/08 08:46:58;;;;;;;7.88;2.50;;;;;;;6.99;100.00;94162.88;5137370;27;20027;-68
2022/01/08 08:49:25;;;;;;;3.45;2.60;;;;;;;7.03;100.00;94158.75;5137497;27;20076;-69
2022/01/08 08:51:50;;;;;;;3.55;2.05;;;;;;;7.37;100.00;94153.75;5137154;27;20027;-69
2022/01/08 08:54:16;;;;;;;6.55;2.45;;;;;;;7.32;100.00;94159.09;5136061;27;20448;-69
2022/01/08 08:56:42;;;;;;;3.25;2.40;;;;;;;7.20;100.00;94148.19;5136981;27;20027;-69
2022/01/08 08:59:09;;;;;;;2.80;2.10;;;;;;;7.44;100.00;94141.81;5137903;27;20030;-70
2022/01/08 09:01:35;;;;;;;3.65;2.22;;;;;;;7.18;100.00;94129.00;5137427;27;20464;-70
2022/01/08 09:04:00;;;;;;;4.13;2.42;;;;;;;7.26;99.21;94132.78;5136887;27;20056;-70
2022/01/08 09:06:26;;;;;;;6.00;2.75;;;;;;;6.92;100.00;94135.06;5136822;27;20098;-70
2022/01/08 09:08:53;;;;;;;3.15;2.25;;;;;;;7.46;99.03;94125.91;5137257;27;20033;-70
2022/01/08 09:11:18;;;;;;;4.50;2.85;;;;;;;6.66;100.00;94118.06;5136721;27;20035;-69
2022/01/08 09:13:44;;;;;;;7.60;2.75;;;;;;;6.65;100.00;94122.72;5136549;27;20106;-69
2022/01/08 09:16:09;;;;;;;7.55;2.90;;;;;;;6.40;100.00;94129.47;5136658;27;20368;-70
2022/01/08 09:18:37;;;;;;;4.55;2.72;;;;;;;6.26;100.00;94118.25;5136919;27;20023;-72
2022/01/08 09:21:03;;;;;;;5.65;2.80;;;;;;;6.62;100.00;94117.53;5135909;27;20031;-73
2022/01/08 09:23:30;;;;;;;8.55;3.13;;;;;;;6.64;100.00;94109.69;5144287;27;20106;-67
2022/01/08 09:25:55;;;;;;;4.95;3.05;;;;;;;6.66;100.00;94096.50;5137805;27;20091;-76
2022/01/08 09:28:21;;;;;;;7.95;3.53;;;;;;;6.80;100.00;94111.88;5136964;27;20078;-76
2022/01/08 09:30:47;;;;;;;7.55;3.00;;;;;;;6.90;100.00;94101.72;5136389;27;20034;-72
2022/01/08 09:33:12;;;;;;;15.73;3.45;;;;;;;6.87;100.00;94111.50;5136106;27;20019;-68
2022/01/08 09:35:38;;;;;;;3.28;2.20;;;;;;;6.74;100.00;94100.28;5136293;27;20031;-68
2022/01/08 09:38:03;;;;;;;20.48;3.65;;;;;;;6.69;100.00;94098.97;5136328;27;20034;-71
2022/01/08 09:40:29;;;;;;;5.50;3.10;;;;;;;6.22;100.00;94088.06;5136239;27;20083;-69
2022/01/08 09:42:55;;;;;;;5.13;2.80;;;;;;;5.83;100.00;94063.94;5136476;27;20038;-69
2022/01/08 09:45:21;;;;;;;5.15;3.58;;;;;;;5.74;100.00;94074.84;5135062;27;20023;-70
2022/01/08 09:47:46;;;;;;;4.35;2.90;;;;;;;5.55;100.00;94072.31;5136096;27;20038;-70
2022/01/08 09:50:12;;;;;;;4.65;3.05;;;;;;;5.82;100.00;94081.31;5135989;27;20443;-71
2022/01/08 09:52:38;;;;;;;5.10;3.35;;;;;;;5.72;100.00;94063.78;5135038;27;20471;-70
2022/01/08 09:55:07;;;;;;;4.40;3.08;;;;;;;5.41;100.00;94071.09;5135942;27;20083;-71
2022/01/08 09:57:33;;;;;;;5.10;3.20;;;;;;;5.64;100.00;94062.66;5135728;27;20030;-71
2022/01/08 09:59:58;;;;;;;6.05;3.15;;;;;;;5.56;100.00;94056.91;5136636;27;20023;-75
2022/01/08 10:02:24;;;;;;;6.47;3.13;;;;;;;6.62;100.00;94063.59;5136129;27;20061;-73
2022/01/08 10:04:51;;;;;;;14.95;4.15;;;;;;;6.07;100.00;94066.53;5136018;27;20345;-72
2022/01/08 10:07:19;;;;;;;5.78;2.95;;;;;;;5.71;100.00;94057.66;5135648;27;20126;-72
2022/01/08 10:10:14;;;;;;;6.68;2.90;;;;;;;6.17;100.00;94053.69;5135506;27;20026;-72
2022/01/08 10:12:55;;;;;;;6.72;3.30;;;;;;;5.68;100.00;94053.19;5135713;27;20023;-70
2022/01/08 10:18:29;;;;;;;5.60;3.15;;;;;;;5.92;100.00;94039.59;5136081;27;20119;-70
2022/01/08 10:20:56;;;;;;;4.25;3.40;;;;;;;5.57;100.00;94042.22;5135473;27;20030;-70
2022/01/08 10:23:25;;;;;;;3.80;2.78;;;;;;;5.75;100.00;94035.91;5135015;27;20034;-69
2022/01/08 10:26:04;;;;;;;10.93;3.10;;;;;;;5.69;100.00;94016.25;5135019;27;20038;-69
2022/01/08 10:29:06;;;;;;;5.68;3.05;;;;;;;5.57;100.00;94018.00;5135031;27;20119;-69
2022/01/08 10:31:43;;;;;;;7.40;3.30;;;;;;;5.49;100.00;94038.44;5126017;27;20107;-69
2022/01/08 10:34:10;;;;;;;5.10;3.00;;;;;;;5.63;100.00;94034.25;5132910;27;20023;-70
2022/01/08 10:36:50;;;;;;;6.13;3.40;;;;;;;5.58;100.00;94027.56;5135146;27;20067;-68
2022/01/08 10:39:22;;;;;;;7.65;3.03;;;;;;;5.49;100.00;94022.28;5134839;27;20027;-69
2022/01/08 10:41:51;;;;;;;5.85;3.80;;;;;;;5.62;100.00;94017.34;5135054;27;20064;-68
2022/01/08 10:44:25;;;;;;;6.45;3.35;;;;;;;5.69;100.00;93995.44;5134725;27;20058;-68
2022/01/08 10:47:16;;;;;;;6.07;3.60;;;;;;;5.88;100.00;94001.34;5134886;27;20102;-70
2022/01/08 10:49:47;;;;;;;5.38;2.90;;;;;;;5.55;100.00;93999.63;5134947;27;20057;-69
2022/01/08 10:52:20;;;;;;;5.05;3.40;;;;;;;5.37;100.00;94002.50;5134622;27;20046;-70
2022/01/08 10:54:53;;;;;;;5.07;3.30;;;;;;;5.67;100.00;93991.72;5133475;27;20099;-70
2022/01/08 10:57:19;;;;;;;5.10;3.45;;;;;;;5.63;100.00;93985.78;5134538;27;20015;-70
2022/01/08 10:59:44;;;;;;;4.28;2.83;;;;;;;5.61;100.00;93993.59;5134452;27;20019;-69
2022/01/08 11:02:11;;;;;;;6.38;3.55;;;;;;;5.84;100.00;93995.41;5134582;27;20038;-70
2022/01/08 11:04:52;;;;;;;5.80;3.90;;;;;;;5.79;100.00;93998.75;5135507;27;20436;-72
2022/01/08 11:07:30;;;;;;;7.03;3.60;;;;;;;5.59;100.00;93994.06;5136552;27;20083;-69
2022/01/08 11:10:04;;;;;;;6.50;3.47;;;;;;;5.87;100.00;94001.81;5134326;27;20027;-69
2022/01/08 11:12:35;;;;;;;5.43;3.75;;;;;;;5.88;100.00;93997.91;5134575;27;20098;-70
2022/01/08 11:17:44;;;;;;;9.57;3.28;;;;;;;5.89;100.00;93985.91;5134307;27;20035;-70
2022/01/08 11:20:17;;;;;;;5.05;3.40;;;;;;;5.78;100.00;93986.53;5134489;27;20027;-69
2022/01/08 11:22:45;;;;;;;5.43;3.28;;;;;;;6.02;100.00;93994.47;5134171;27;20034;-70
2022/01/08 11:25:15;;;;;;;8.80;4.10;;;;;;;6.03;100.00;93989.81;5134441;27;20178;-70
2022/01/08 11:28:03;;;;;;;7.35;3.42;;;;;;;6.18;100.00;93985.13;5134361;27;20019;-70
2022/01/08 11:30:32;;;;;;;4.00;2.75;;;;;;;5.85;100.00;93986.13;5134639;27;20027;-72
2022/01/08 11:33:05;;;;;;;4.70;2.83;;;;;;;6.00;100.00;93982.66;5134169;27;20027;-71
2022/01/08 11:35:32;;;;;;;7.65;2.97;;;;;;;5.76;100.00;93967.38;5133294;27;20077;-70
2022/01/08 11:38:02;;;;;;;5.70;2.45;;;;;;;5.40;100.00;93958.53;5134077;27;20087;-70
2022/01/08 11:40:30;;;;;;;4.43;2.95;;;;;;;5.46;100.00;93975.50;5134367;27;20015;-69
2022/01/08 11:42:59;;;;;;;4.57;3.00;;;;;;;5.61;100.00;93972.06;5133823;27;20452;-69
2022/01/08 11:45:28;;;;;;;3.95;3.05;;;;;;;5.54;100.00;93957.03;5134126;27;20102;-70
2022/01/08 11:47:57;;;;;;;4.20;3.13;;;;;;;5.84;100.00;93965.78;5134041;27;20015;-71
2022/01/08 11:50:28;;;;;;;4.22;3.40;;;;;;;5.93;100.00;93960.28;5132910;28;20031;-70
2022/01/08 11:53:18;;;;;;;7.05;3.35;;;;;;;5.85;100.00;93963.81;5134198;27;20037;-71
2022/01/08 11:55:47;;;;;;;4.10;3.05;;;;;;;5.45;100.00;93957.88;5133791;27;20027;-69
2022/01/08 11:58:22;;;;;;;4.35;3.47;;;;;;;5.58;100.00;93950.25;5134155;27;20465;-69
2022/01/08 12:01:14;;;;;;;7.95;3.53;;;;;;;5.68;100.00;93955.50;5133005;28;20019;-69
2022/01/08 12:03:48;;;;;;;6.85;2.97;;;;;;;5.43;100.00;93946.84;5134315;27;20027;-69